createdAt,value
2022-10-28T00:00:05.689Z,11.35
2022-10-28T00:05:34.100Z,11.43
2022-10-28T00:10:37.458Z,11.46
2022-10-28T00:15:40.470Z,11.44
2022-10-28T00:20:43.515Z,11.46
2022-10-28T00:25:46.471Z,11.59
2022-10-28T00:30:49.408Z,11.70
2022-10-28T00:35:52.375Z,11.78
2022-10-28T00:40:55.405Z,11.82
2022-10-28T00:45:58.694Z,11.80
2022-10-28T00:51:03.467Z,11.81
2022-10-28T00:56:08.868Z,11.81
2022-10-28T01:01:11.875Z,11.86
2022-10-28T01:06:15.579Z,11.94
2022-10-28T01:11:45.452Z,12.02
2022-10-28T01:17:24.911Z,11.99
2022-10-28T01:22:27.879Z,11.89
2022-10-28T01:28:11.370Z,11.83
2022-10-28T01:34:13.171Z,11.91
2022-10-28T01:39:47.490Z,12.02
2022-10-28T01:45:08.922Z,12.14
2022-10-28T01:50:44.403Z,12.29
2022-10-28T01:55:54.149Z,12.36
2022-10-28T02:01:01.012Z,12.34
2022-10-28T02:06:11.375Z,12.29
2022-10-28T02:11:55.487Z,12.25
2022-10-28T02:17:10.782Z,12.24
2022-10-28T02:22:41.024Z,12.18
2022-10-28T02:28:00.642Z,12.02
2022-10-28T02:33:10.799Z,11.83
2022-10-28T02:38:39.903Z,11.72
2022-10-28T02:43:46.026Z,11.69
2022-10-28T02:48:55.287Z,11.69
2022-10-28T02:54:09.749Z,11.79
2022-10-28T02:59:13.798Z,11.82
2022-10-28T03:04:16.832Z,11.84
2022-10-28T03:09:19.869Z,11.74
2022-10-28T03:14:22.947Z,11.69
2022-10-28T03:19:25.958Z,11.66
2022-10-28T03:24:28.953Z,11.68
2022-10-28T03:29:32.265Z,11.65
2022-10-28T03:34:35.268Z,11.61
2022-10-28T03:39:38.270Z,11.50
2022-10-28T03:44:41.296Z,11.39
2022-10-28T03:49:44.279Z,11.40
2022-10-28T03:54:47.285Z,11.41
2022-10-28T03:59:50.288Z,11.49
2022-10-28T04:04:53.606Z,11.62
2022-10-28T04:09:56.601Z,11.71
2022-10-28T04:14:59.647Z,11.64
2022-10-28T04:20:02.734Z,11.53
2022-10-28T04:25:06.556Z,11.49
2022-10-28T04:30:13.073Z,11.45
2022-10-28T04:35:16.333Z,11.42
2022-10-28T04:40:19.351Z,11.49
2022-10-28T04:45:22.439Z,11.50
2022-10-28T04:50:26.074Z,11.48
2022-10-28T04:55:29.265Z,11.41
2022-10-28T05:00:32.488Z,11.40
2022-10-28T05:05:37.630Z,11.46
2022-10-28T05:10:40.666Z,11.55
2022-10-28T05:15:44.149Z,11.59
2022-10-28T05:20:47.257Z,11.59
2022-10-28T05:25:52.004Z,11.58
2022-10-28T05:30:55.043Z,11.52
2022-10-28T05:36:00.111Z,11.51
2022-10-28T05:41:03.814Z,11.56
2022-10-28T05:46:06.780Z,11.60
2022-10-28T05:51:09.802Z,11.57
2022-10-28T05:56:12.793Z,11.51
2022-10-28T06:01:15.856Z,11.49
2022-10-28T06:06:18.897Z,11.47
2022-10-28T06:11:20.323Z,11.50
2022-10-28T06:16:23.311Z,11.60
2022-10-28T06:21:26.380Z,11.66
2022-10-28T06:26:29.390Z,11.75
2022-10-28T06:31:32.431Z,11.79
2022-10-28T06:36:35.714Z,11.89
2022-10-28T06:41:38.972Z,12.04
2022-10-28T06:46:43.562Z,12.19
2022-10-28T06:51:46.659Z,12.30
2022-10-28T06:56:49.679Z,12.38
2022-10-28T07:01:52.903Z,12.37
2022-10-28T07:06:59.371Z,12.36
2022-10-28T07:12:05.049Z,12.41
2022-10-28T07:17:08.869Z,12.42
2022-10-28T07:22:12.378Z,12.54
2022-10-28T07:27:15.602Z,12.60
2022-10-28T07:32:18.726Z,12.58
2022-10-28T07:37:22.030Z,12.54
2022-10-28T07:42:25.139Z,12.60
2022-10-28T07:47:28.481Z,12.72
2022-10-28T07:52:31.951Z,12.78
2022-10-28T07:57:36.003Z,12.72
2022-10-28T08:02:39.861Z,12.73
2022-10-28T08:07:42.943Z,12.80
2022-10-28T08:12:46.758Z,12.91
2022-10-28T08:17:54.217Z,13.03
2022-10-28T08:23:01.771Z,13.16
2022-10-28T08:28:07.188Z,13.35
2022-10-28T08:33:10.477Z,13.49
2022-10-28T08:38:13.484Z,13.61
2022-10-28T08:43:57.115Z,13.72
2022-10-28T08:49:14.458Z,13.86
2022-10-28T08:54:50.676Z,14.03
2022-10-28T08:59:55.249Z,14.22
2022-10-28T09:05:23.056Z,14.48
2022-10-28T09:10:43.096Z,14.73
2022-10-28T09:16:24.702Z,14.96
2022-10-28T09:21:45.644Z,15.13
2022-10-28T09:27:17.307Z,15.25
2022-10-28T09:32:30.010Z,15.40
2022-10-28T09:37:41.540Z,15.44
2022-10-28T09:43:28.065Z,15.52
2022-10-28T09:48:55.967Z,15.62
2022-10-28T09:54:01.440Z,15.76
2022-10-28T09:59:05.540Z,15.90
2022-10-28T10:04:31.309Z,16.00
2022-10-28T10:09:37.405Z,16.08
2022-10-28T10:14:49.190Z,16.19
2022-10-28T10:20:15.206Z,16.29
2022-10-28T10:25:18.118Z,16.41
2022-10-28T10:30:56.810Z,16.50
2022-10-28T10:36:10.744Z,16.65
2022-10-28T10:41:36.939Z,16.79
2022-10-28T10:46:39.877Z,16.85
2022-10-28T10:51:59.835Z,16.96
2022-10-28T10:57:20.788Z,17.03
2022-10-28T11:02:31.685Z,17.11
2022-10-28T11:07:37.515Z,17.24
2022-10-28T11:12:54.417Z,17.30
2022-10-28T11:18:21.664Z,17.41
2022-10-28T11:23:33.946Z,17.50
2022-10-28T11:28:59.705Z,17.67
2022-10-28T11:35:01.076Z,17.87
2022-10-28T11:40:32.549Z,18.01
2022-10-28T11:45:51.315Z,18.23
2022-10-28T11:51:28.528Z,18.36
2022-10-28T11:56:43.358Z,18.35
2022-10-28T12:02:20.381Z,18.41
2022-10-28T12:07:29.368Z,18.55
2022-10-28T12:12:47.197Z,18.54
2022-10-28T12:17:58.402Z,18.19
2022-10-28T12:23:23.762Z,17.96
2022-10-28T12:28:58.999Z,17.85
2022-10-28T12:34:10.466Z,17.57
2022-10-28T12:39:44.339Z,17.39
2022-10-28T12:44:52.957Z,17.30
2022-10-28T12:50:28.218Z,17.34
2022-10-28T12:56:00.964Z,17.45
2022-10-28T13:01:21.345Z,17.41
2022-10-28T13:07:06.010Z,17.31
2022-10-28T13:12:26.962Z,17.22
2022-10-28T13:18:28.098Z,17.25
2022-10-28T13:23:58.240Z,17.25
2022-10-28T13:29:07.360Z,17.26
2022-10-28T13:34:15.113Z,17.29
2022-10-28T13:39:31.828Z,17.34
2022-10-28T13:44:58.875Z,17.36
2022-10-28T13:50:34.424Z,17.37
2022-10-28T13:55:40.943Z,17.35
2022-10-28T14:00:46.746Z,17.32
2022-10-28T14:06:02.646Z,17.29
2022-10-28T14:11:22.416Z,17.31
2022-10-28T14:16:34.343Z,17.32
2022-10-28T14:22:07.179Z,17.27
2022-10-28T14:27:43.922Z,17.19
2022-10-28T14:32:50.001Z,17.10
2022-10-28T14:38:10.118Z,17.04
2022-10-28T14:43:46.413Z,16.98
2022-10-28T14:49:24.315Z,16.83
2022-10-28T14:54:39.813Z,16.71
2022-10-28T14:59:45.706Z,16.65
2022-10-28T15:05:00.773Z,16.60
2022-10-28T15:10:38.276Z,16.49
2022-10-28T15:16:03.804Z,16.36
2022-10-28T15:21:16.785Z,16.29
2022-10-28T15:26:19.852Z,16.22
2022-10-28T15:31:23.012Z,16.19
2022-10-28T15:36:49.474Z,16.17
2022-10-28T15:41:54.547Z,16.07
2022-10-28T15:47:00.321Z,15.94
2022-10-28T15:52:19.059Z,15.88
2022-10-28T15:57:30.164Z,15.88
2022-10-28T16:02:41.366Z,15.88
2022-10-28T16:07:45.935Z,15.84
2022-10-28T16:13:10.603Z,15.83
2022-10-28T16:18:42.332Z,15.86
2022-10-28T16:23:49.585Z,15.88
2022-10-28T16:28:53.615Z,15.89
2022-10-28T16:33:59.938Z,15.84
2022-10-28T16:39:03.070Z,15.78
2022-10-28T16:44:10.156Z,15.79
2022-10-28T16:49:13.378Z,15.77
2022-10-28T16:54:16.353Z,15.75
2022-10-28T16:59:19.370Z,15.71
2022-10-28T17:04:22.571Z,15.67
2022-10-28T17:09:25.571Z,15.67
2022-10-28T17:14:28.579Z,15.71
2022-10-28T17:19:31.685Z,15.76
2022-10-28T17:24:35.202Z,15.81
2022-10-28T17:29:39.031Z,15.84
2022-10-28T17:34:42.642Z,15.80
2022-10-28T17:39:45.805Z,15.72
2022-10-28T17:45:07.794Z,15.63
2022-10-28T17:50:10.905Z,15.59
2022-10-28T17:55:13.910Z,15.56
2022-10-28T18:00:34.421Z,15.56
2022-10-28T18:05:56.674Z,15.57
2022-10-28T18:11:00.399Z,15.53
2022-10-28T18:16:05.762Z,15.45
2022-10-28T18:21:11.725Z,15.35
2022-10-28T18:26:35.946Z,15.34
2022-10-28T18:31:42.297Z,15.36
2022-10-28T18:36:45.942Z,15.40
2022-10-28T18:41:51.575Z,15.42
2022-10-28T18:46:54.908Z,15.40
2022-10-28T18:51:59.762Z,15.40
2022-10-28T18:57:20.272Z,15.41
2022-10-28T19:02:23.770Z,15.40
2022-10-28T19:07:45.219Z,15.37
2022-10-28T19:12:52.778Z,15.30
2022-10-28T19:17:56.415Z,15.27
2022-10-28T19:23:18.807Z,15.22
2022-10-28T19:28:23.053Z,15.15
2022-10-28T19:33:28.232Z,15.10
2022-10-28T19:38:34.223Z,15.03
2022-10-28T19:43:38.093Z,15.01
2022-10-28T19:48:45.518Z,15.07
2022-10-28T19:53:57.946Z,15.12
2022-10-28T19:59:04.781Z,15.15
2022-10-28T20:04:10.257Z,15.16
2022-10-28T20:09:14.511Z,15.14
2022-10-28T20:14:17.828Z,15.12
2022-10-28T20:19:38.749Z,15.10
2022-10-28T20:24:41.883Z,15.13
2022-10-28T20:29:44.859Z,15.16
2022-10-28T20:34:47.996Z,15.19
2022-10-28T20:40:10.322Z,15.21
2022-10-28T20:45:14.147Z,15.22
2022-10-28T20:50:17.658Z,15.20
2022-10-28T20:55:20.762Z,15.16
2022-10-28T21:00:24.111Z,15.16
2022-10-28T21:05:27.190Z,15.17
2022-10-28T21:10:30.289Z,15.10
2022-10-28T21:15:56.389Z,15.03
2022-10-28T21:21:21.224Z,15.05
2022-10-28T21:26:41.578Z,15.08
2022-10-28T21:31:44.673Z,15.05
2022-10-28T21:37:05.178Z,14.99
2022-10-28T21:42:25.847Z,14.95
2022-10-28T21:47:29.116Z,14.91
2022-10-28T21:52:32.221Z,14.93
2022-10-28T21:57:35.320Z,14.94
2022-10-28T22:02:38.530Z,14.95
2022-10-28T22:07:41.637Z,14.87
2022-10-28T22:12:44.757Z,14.80
2022-10-28T22:17:48.358Z,14.78
2022-10-28T22:22:51.465Z,14.83
2022-10-28T22:27:54.571Z,14.83
2022-10-28T22:32:59.952Z,14.81
2022-10-28T22:38:03.035Z,14.75
2022-10-28T22:43:06.278Z,14.72
2022-10-28T22:48:28.316Z,14.76
2022-10-28T22:53:31.400Z,14.74
2022-10-28T22:58:35.029Z,14.77
2022-10-28T23:03:44.513Z,14.76
2022-10-28T23:09:05.098Z,14.73
2022-10-28T23:14:08.414Z,14.70
2022-10-28T23:19:29.231Z,14.67
2022-10-28T23:24:32.329Z,14.67
2022-10-28T23:29:53.661Z,14.62
2022-10-28T23:34:56.769Z,14.64
2022-10-28T23:39:59.917Z,14.67
2022-10-28T23:45:03.287Z,14.69
2022-10-28T23:50:06.633Z,14.71
2022-10-28T23:55:10.420Z,14.69
